createdAt,value
2023-01-30T00:01:38.706Z,99028.13
2023-01-30T00:06:41.494Z,99016.27
2023-01-30T00:11:43.285Z,99002.97
2023-01-30T00:16:45.158Z,98988.87
2023-01-30T00:21:46.923Z,98979.23
2023-01-30T00:26:48.638Z,98969.10
2023-01-30T00:31:50.459Z,98970.87
2023-01-30T00:37:07.129Z,98958.99
2023-01-30T00:42:28.771Z,98955.95
2023-01-30T00:47:30.517Z,98951.22
2023-01-30T00:52:32.223Z,98939.93
2023-01-30T00:57:33.918Z,98935.82
2023-01-30T01:02:35.899Z,98921.65
2023-01-30T01:07:37.598Z,98905.22
2023-01-30T01:12:39.241Z,98909.00
2023-01-30T01:17:42.030Z,98885.80
2023-01-30T01:22:45.816Z,98879.48
2023-01-30T01:27:48.423Z,98865.15
2023-01-30T01:32:51.579Z,98852.67
2023-01-30T01:37:54.627Z,98842.58
2023-01-30T01:42:56.275Z,98819.08
2023-01-30T01:48:03.857Z,98797.70
2023-01-30T01:53:07.308Z,98781.55
2023-01-30T01:58:13.891Z,98773.10
2023-01-30T02:03:19.779Z,98764.27
2023-01-30T02:08:26.545Z,98759.59
2023-01-30T02:13:28.496Z,98751.23
2023-01-30T02:18:32.094Z,98744.49
2023-01-30T02:24:11.553Z,98744.77
2023-01-30T02:29:51.006Z,98720.08
2023-01-30T02:35:08.303Z,98712.58
2023-01-30T02:40:31.754Z,98703.63
2023-01-30T02:46:00.387Z,98694.35
2023-01-30T02:51:07.473Z,98690.34
2023-01-30T02:56:09.473Z,98689.83
2023-01-30T03:01:24.090Z,98694.66
2023-01-30T03:06:38.182Z,98686.52
2023-01-30T03:12:09.238Z,98677.45
2023-01-30T03:17:13.297Z,98672.53
2023-01-30T03:22:15.350Z,98670.44
2023-01-30T03:27:17.869Z,98665.88
2023-01-30T03:32:19.551Z,98661.23
2023-01-30T03:37:21.528Z,98650.48
2023-01-30T03:42:23.459Z,98643.18
2023-01-30T03:47:25.297Z,98633.73
2023-01-30T03:52:27.328Z,98629.35
2023-01-30T03:57:29.260Z,98612.80
2023-01-30T04:02:31.179Z,98605.66
2023-01-30T04:07:33.682Z,98592.35
2023-01-30T04:12:35.719Z,98580.98
2023-01-30T04:17:38.812Z,98575.23
2023-01-30T04:22:56.388Z,98565.46
2023-01-30T04:27:59.583Z,98560.58
2023-01-30T04:33:05.105Z,98557.30
2023-01-30T04:38:06.814Z,98549.56
2023-01-30T04:43:08.705Z,98547.33
2023-01-30T04:48:10.405Z,98555.44
2023-01-30T04:53:12.905Z,98540.11
2023-01-30T04:58:15.933Z,98526.90
2023-01-30T05:03:18.602Z,98526.24
2023-01-30T05:08:20.286Z,98502.96
2023-01-30T05:13:22.118Z,98501.67
2023-01-30T05:18:23.858Z,98496.38
2023-01-30T05:23:25.488Z,98479.09
2023-01-30T05:28:28.181Z,98482.45
2023-01-30T05:33:30.461Z,98473.79
2023-01-30T05:38:32.387Z,98497.91
2023-01-30T05:43:35.551Z,98484.00
2023-01-30T05:48:37.566Z,98455.77
2023-01-30T05:53:39.227Z,98426.14
2023-01-30T05:58:40.995Z,98390.89
2023-01-30T06:03:42.832Z,98385.84
2023-01-30T06:08:44.982Z,98409.38
2023-01-30T06:13:46.855Z,98420.84
2023-01-30T06:18:48.588Z,98404.11
2023-01-30T06:23:50.522Z,98402.68
2023-01-30T06:28:52.195Z,98387.88
2023-01-30T06:33:53.885Z,98389.59
2023-01-30T06:38:55.621Z,98380.30
2023-01-30T06:43:57.340Z,98390.99
2023-01-30T06:48:59.132Z,98390.08
2023-01-30T06:54:00.847Z,98380.84
2023-01-30T06:59:02.494Z,98374.07
2023-01-30T07:04:04.389Z,98379.64
2023-01-30T07:09:06.044Z,98352.66
2023-01-30T07:14:09.457Z,98343.52
2023-01-30T07:19:11.150Z,98337.55
2023-01-30T07:24:13.029Z,98322.08
2023-01-30T07:29:14.713Z,98319.09
2023-01-30T07:34:16.372Z,98325.19
2023-01-30T07:39:18.027Z,98324.95
2023-01-30T07:44:19.819Z,98306.56
2023-01-30T07:49:21.736Z,98305.30
2023-01-30T07:54:23.474Z,98312.46
2023-01-30T07:59:25.160Z,98328.34
2023-01-30T08:04:26.836Z,98318.36
2023-01-30T08:09:28.519Z,98302.13
2023-01-30T08:14:30.310Z,98291.63
2023-01-30T08:19:32.053Z,98275.53
2023-01-30T08:24:33.858Z,98255.69
2023-01-30T08:29:35.842Z,98261.42
2023-01-30T08:34:37.581Z,98261.94
2023-01-30T08:39:39.246Z,98253.73
2023-01-30T08:44:40.903Z,98260.52
2023-01-30T08:49:42.561Z,98271.19
2023-01-30T08:54:44.471Z,98266.01
2023-01-30T08:59:46.314Z,98261.10
2023-01-30T09:04:48.107Z,98250.64
2023-01-30T09:09:49.867Z,98249.44
2023-01-30T09:14:53.813Z,98239.79
2023-01-30T09:19:55.584Z,98238.15
2023-01-30T09:24:59.016Z,98225.38
2023-01-30T09:30:00.668Z,98222.08
2023-01-30T09:35:02.359Z,98215.94
2023-01-30T09:40:05.227Z,98204.37
2023-01-30T09:45:30.461Z,98195.91
2023-01-30T09:51:19.817Z,98175.08
2023-01-30T09:56:21.535Z,98159.34
2023-01-30T10:01:40.641Z,98155.79
2023-01-30T10:07:08.613Z,98157.21
2023-01-30T10:12:31.174Z,98158.93
2023-01-30T10:17:49.387Z,98142.83
2023-01-30T10:23:10.211Z,98126.86
2023-01-30T10:28:33.183Z,98121.75
2023-01-30T10:33:44.891Z,98102.45
2023-01-30T10:38:49.902Z,98084.58
2023-01-30T10:44:01.295Z,98088.79
2023-01-30T10:49:43.474Z,98100.18
2023-01-30T10:54:59.940Z,98079.77
2023-01-30T11:00:10.406Z,98066.43
2023-01-30T11:05:24.294Z,98056.02
2023-01-30T11:10:27.756Z,98039.08
2023-01-30T11:15:43.555Z,98036.90
2023-01-30T11:20:55.275Z,98037.63
2023-01-30T11:26:10.393Z,98024.48
2023-01-30T11:31:40.717Z,98013.53
2023-01-30T11:36:43.578Z,98003.58
2023-01-30T11:41:54.393Z,97992.65
2023-01-30T11:47:03.906Z,97984.77
2023-01-30T11:52:06.459Z,97968.73
2023-01-30T11:57:14.684Z,97959.10
2023-01-30T12:02:28.311Z,97959.50
2023-01-30T12:07:33.580Z,97949.91
2023-01-30T12:12:43.581Z,97950.44
2023-01-30T12:18:27.225Z,97949.09
2023-01-30T12:23:48.504Z,97949.99
2023-01-30T12:29:23.591Z,97950.80
2023-01-30T12:34:27.225Z,97955.13
2023-01-30T12:39:54.821Z,97946.70
2023-01-30T12:45:21.524Z,97935.88
2023-01-30T12:50:41.822Z,97929.02
2023-01-30T12:56:19.790Z,97929.04
2023-01-30T13:01:43.351Z,97921.26
2023-01-30T13:06:59.025Z,97916.24
2023-01-30T13:12:00.682Z,97907.47
2023-01-30T13:17:14.376Z,97903.70
2023-01-30T13:22:35.663Z,97905.45
2023-01-30T13:27:40.263Z,97899.59
2023-01-30T13:32:49.508Z,97897.33
2023-01-30T13:37:54.428Z,97904.18
2023-01-30T13:43:19.843Z,97900.36
2023-01-30T13:48:37.624Z,97897.84
2023-01-30T13:53:53.960Z,97873.98
2023-01-30T13:59:10.018Z,97860.11
2023-01-30T14:04:43.358Z,97863.73
2023-01-30T14:10:11.121Z,97874.73
2023-01-30T14:15:12.850Z,97872.39
2023-01-30T14:20:20.821Z,97869.72
2023-01-30T14:25:22.515Z,97872.54
2023-01-30T14:30:45.802Z,97873.00
2023-01-30T14:36:02.793Z,97879.50
2023-01-30T14:41:04.509Z,97881.33
2023-01-30T14:46:12.670Z,97879.27
2023-01-30T14:51:39.293Z,97891.73
2023-01-30T14:57:01.653Z,97888.61
2023-01-30T15:02:06.345Z,97887.06
2023-01-30T15:07:13.338Z,97888.20
2023-01-30T15:12:20.904Z,97900.66
2023-01-30T15:17:58.258Z,97909.66
2023-01-30T15:23:42.019Z,97909.46
2023-01-30T15:29:17.898Z,97930.41
2023-01-30T15:34:20.498Z,97938.94
2023-01-30T15:39:29.171Z,97934.64
2023-01-30T15:44:58.275Z,97935.06
2023-01-30T15:50:04.829Z,97942.59
2023-01-30T15:55:15.125Z,97946.23
2023-01-30T16:00:27.329Z,97951.41
2023-01-30T16:05:30.355Z,97952.66
2023-01-30T16:10:32.302Z,97949.30
2023-01-30T16:15:38.987Z,97955.79
2023-01-30T16:21:00.083Z,97972.49
2023-01-30T16:26:04.387Z,97978.79
2023-01-30T16:31:08.812Z,97977.19
2023-01-30T16:36:19.514Z,97980.21
2023-01-30T16:41:36.024Z,97988.87
2023-01-30T16:47:04.814Z,97993.67
2023-01-30T16:52:20.781Z,97987.48
2023-01-30T16:57:35.839Z,97986.14
2023-01-30T17:02:41.101Z,97977.15
2023-01-30T17:07:43.192Z,97976.23
2023-01-30T17:12:48.343Z,97982.91
2023-01-30T17:17:50.854Z,97984.27
2023-01-30T17:22:57.872Z,97990.47
2023-01-30T17:27:59.624Z,97995.02
2023-01-30T17:33:01.401Z,97991.67
2023-01-30T17:38:05.946Z,97988.55
2023-01-30T17:43:09.625Z,97986.95
2023-01-30T17:48:12.656Z,97981.39
2023-01-30T17:53:14.314Z,97979.91
2023-01-30T17:58:17.284Z,97977.93
2023-01-30T18:03:19.523Z,97973.95
2023-01-30T18:08:21.405Z,97977.51
2023-01-30T18:13:23.189Z,97971.07
2023-01-30T18:18:24.893Z,97966.41
2023-01-30T18:23:26.596Z,97961.29
2023-01-30T18:28:28.246Z,97963.95
2023-01-30T18:33:29.888Z,97968.29
2023-01-30T18:38:32.124Z,97964.35
2023-01-30T18:43:34.236Z,97955.52
2023-01-30T18:48:36.772Z,97962.73
2023-01-30T18:53:39.244Z,97956.86
2023-01-30T18:58:41.455Z,97958.45
2023-01-30T19:03:43.707Z,97958.66
2023-01-30T19:08:45.910Z,97960.97
2023-01-30T19:13:47.595Z,97966.45
2023-01-30T19:18:50.021Z,97976.96
2023-01-30T19:23:52.659Z,97976.17
2023-01-30T19:28:54.420Z,97973.73
2023-01-30T19:33:58.712Z,97985.09
2023-01-30T19:39:03.481Z,97982.45
2023-01-30T19:44:08.279Z,97995.04
2023-01-30T19:49:11.357Z,97998.80
2023-01-30T19:54:13.123Z,98000.77
2023-01-30T19:59:16.577Z,98005.98
2023-01-30T20:04:18.299Z,98009.55
2023-01-30T20:09:20.169Z,98017.88
2023-01-30T20:14:21.958Z,98016.14
2023-01-30T20:19:23.655Z,98017.27
2023-01-30T20:24:25.625Z,98028.05
2023-01-30T20:29:27.435Z,98032.79
2023-01-30T20:34:29.136Z,98033.98
2023-01-30T20:39:31.266Z,98021.05
2023-01-30T20:44:35.295Z,98023.38
2023-01-30T20:49:37.306Z,98028.31
2023-01-30T20:54:39.139Z,98033.81
2023-01-30T20:59:42.138Z,98035.73
2023-01-30T21:04:43.933Z,98040.57
2023-01-30T21:09:45.721Z,98044.35
2023-01-30T21:14:47.395Z,98044.89
2023-01-30T21:19:49.040Z,98048.20
2023-01-30T21:24:50.991Z,98064.06
2023-01-30T21:29:52.733Z,98077.70
2023-01-30T21:34:54.403Z,98090.52
2023-01-30T21:40:14.956Z,98103.07
2023-01-30T21:45:16.787Z,98109.89
2023-01-30T21:50:18.651Z,98113.89
2023-01-30T21:55:20.677Z,98121.15
2023-01-30T22:00:22.738Z,98122.27
2023-01-30T22:05:24.459Z,98135.79
2023-01-30T22:10:26.197Z,98141.29
2023-01-30T22:15:27.855Z,98152.44
2023-01-30T22:20:29.914Z,98154.34
2023-01-30T22:25:31.694Z,98158.39
2023-01-30T22:30:33.611Z,98168.09
2023-01-30T22:35:36.002Z,98181.09
2023-01-30T22:40:38.478Z,98184.20
2023-01-30T22:45:40.390Z,98192.98
2023-01-30T22:50:42.027Z,98191.81
2023-01-30T22:55:43.709Z,98200.88
2023-01-30T23:00:45.480Z,98202.34
2023-01-30T23:06:00.982Z,98207.36
2023-01-30T23:11:10.046Z,98213.48
2023-01-30T23:16:13.016Z,98218.64
2023-01-30T23:21:15.402Z,98220.23
2023-01-30T23:26:17.322Z,98221.39
2023-01-30T23:31:22.274Z,98231.66
2023-01-30T23:36:24.983Z,98227.91
2023-01-30T23:41:31.977Z,98227.10
2023-01-30T23:46:40.035Z,98228.02
2023-01-30T23:51:44.346Z,98234.33
2023-01-30T23:56:46.194Z,98234.06
